Kinistino, Canada
Current Conditions -  °F | °C
As of 8:00 AM on Sunday 23 Nov 2014 (Local Time) from CYPA Reporting Station
Light Snow Light Snow  
Wind Chill: -7°   Ceiling: 4700
Heat Index:   Visibility: 15mi
Dew Point:   Wind: 7mph
Humidity: 85%   Direction: 20°NNE
Pressure: 29.81"   Gusts: NA
Location:  52.95°N, 105.03°W
Report Text: CYPA 231400Z 02006KT 15SM -SN OVC047 M15/M17 A2981 RMK SC8 SLP131
Loading
Personal Weather Stations






























Interactive Weather Map New forecast layout! Learn more

10-Day Weather Forecast

Advertisements
Track Severe Weather on mobile